sensor_id;sensor_type;location;lat;lon;timestamp;P1;durP1;ratioP1;P2;durP2;ratioP2
24102;SDS011;12278;53.058;9.028;2023-03-14T00:01:40;4.47;;;2.80;;
24102;SDS011;12278;53.058;9.028;2023-03-14T00:05:45;7.05;;;3.00;;
24102;SDS011;12278;53.058;9.028;2023-03-14T00:09:46;5.90;;;3.10;;
24102;SDS011;12278;53.058;9.028;2023-03-14T00:13:50;3.85;;;2.63;;
24102;SDS011;12278;53.058;9.028;2023-03-14T00:17:51;6.22;;;2.78;;
24102;SDS011;12278;53.058;9.028;2023-03-14T00:21:51;6.10;;;2.55;;
24102;SDS011;12278;53.058;9.028;2023-03-14T00:25:52;6.13;;;3.50;;
24102;SDS011;12278;53.058;9.028;2023-03-14T00:29:53;4.03;;;3.22;;
24102;SDS011;12278;53.058;9.028;2023-03-14T00:33:53;6.03;;;2.90;;
24102;SDS011;12278;53.058;9.028;2023-03-14T00:37:54;6.28;;;2.83;;
24102;SDS011;12278;53.058;9.028;2023-03-14T00:41:55;3.70;;;3.25;;
24102;SDS011;12278;53.058;9.028;2023-03-14T00:45:55;4.85;;;2.90;;
24102;SDS011;12278;53.058;9.028;2023-03-14T00:50:10;6.78;;;3.10;;
24102;SDS011;12278;53.058;9.028;2023-03-14T00:54:11;9.48;;;3.90;;
24102;SDS011;12278;53.058;9.028;2023-03-14T00:58:13;9.98;;;3.63;;
24102;SDS011;12278;53.058;9.028;2023-03-14T01:02:15;10.38;;;4.28;;
24102;SDS011;12278;53.058;9.028;2023-03-14T01:06:20;5.30;;;3.55;;
24102;SDS011;12278;53.058;9.028;2023-03-14T01:10:23;7.75;;;4.00;;
24102;SDS011;12278;53.058;9.028;2023-03-14T01:14:23;7.07;;;3.70;;
24102;SDS011;12278;53.058;9.028;2023-03-14T01:18:24;6.30;;;3.60;;
24102;SDS011;12278;53.058;9.028;2023-03-14T01:22:25;4.55;;;4.07;;
24102;SDS011;12278;53.058;9.028;2023-03-14T01:26:26;5.18;;;4.35;;
24102;SDS011;12278;53.058;9.028;2023-03-14T01:30:28;6.07;;;4.60;;
24102;SDS011;12278;53.058;9.028;2023-03-14T01:34:29;5.93;;;4.22;;
24102;SDS011;12278;53.058;9.028;2023-03-14T01:38:30;6.35;;;4.07;;
24102;SDS011;12278;53.058;9.028;2023-03-14T01:42:32;10.75;;;5.40;;
24102;SDS011;12278;53.058;9.028;2023-03-14T01:50:36;7.82;;;3.90;;
24102;SDS011;12278;53.058;9.028;2023-03-14T01:54:40;7.80;;;4.97;;
24102;SDS011;12278;53.058;9.028;2023-03-14T01:58:51;8.27;;;4.25;;
24102;SDS011;12278;53.058;9.028;2023-03-14T02:03:00;5.93;;;4.25;;
24102;SDS011;12278;53.058;9.028;2023-03-14T02:07:10;6.88;;;3.55;;
24102;SDS011;12278;53.058;9.028;2023-03-14T02:11:16;8.40;;;3.50;;
24102;SDS011;12278;53.058;9.028;2023-03-14T02:15:17;6.43;;;3.63;;
24102;SDS011;12278;53.058;9.028;2023-03-14T02:19:19;5.15;;;3.10;;
24102;SDS011;12278;53.058;9.028;2023-03-14T02:23:29;5.88;;;3.03;;
24102;SDS011;12278;53.058;9.028;2023-03-14T02:27:43;7.18;;;3.30;;
24102;SDS011;12278;53.058;9.028;2023-03-14T02:31:44;12.02;;;4.38;;
24102;SDS011;12278;53.058;9.028;2023-03-14T02:35:48;9.18;;;3.92;;
24102;SDS011;12278;53.058;9.028;2023-03-14T02:39:53;7.10;;;3.10;;
24102;SDS011;12278;53.058;9.028;2023-03-14T02:44:00;5.10;;;3.00;;
24102;SDS011;12278;53.058;9.028;2023-03-14T02:48:02;6.35;;;2.58;;
24102;SDS011;12278;53.058;9.028;2023-03-14T02:52:07;4.50;;;2.67;;
24102;SDS011;12278;53.058;9.028;2023-03-14T02:56:08;4.40;;;3.10;;
24102;SDS011;12278;53.058;9.028;2023-03-14T03:00:10;6.10;;;3.03;;
24102;SDS011;12278;53.058;9.028;2023-03-14T03:04:11;4.00;;;2.75;;
24102;SDS011;12278;53.058;9.028;2023-03-14T03:08:11;3.42;;;2.67;;
24102;SDS011;12278;53.058;9.028;2023-03-14T03:12:12;4.05;;;2.00;;
24102;SDS011;12278;53.058;9.028;2023-03-14T03:16:13;5.47;;;2.65;;
24102;SDS011;12278;53.058;9.028;2023-03-14T03:20:15;7.40;;;2.60;;
24102;SDS011;12278;53.058;9.028;2023-03-14T03:24:16;5.60;;;2.47;;
24102;SDS011;12278;53.058;9.028;2023-03-14T03:28:17;5.78;;;2.53;;
24102;SDS011;12278;53.058;9.028;2023-03-14T03:32:18;4.78;;;2.78;;
24102;SDS011;12278;53.058;9.028;2023-03-14T03:36:24;4.28;;;2.65;;
24102;SDS011;12278;53.058;9.028;2023-03-14T03:40:26;4.50;;;2.85;;
24102;SDS011;12278;53.058;9.028;2023-03-14T03:44:27;7.35;;;2.80;;
24102;SDS011;12278;53.058;9.028;2023-03-14T03:48:27;9.75;;;3.33;;
24102;SDS011;12278;53.058;9.028;2023-03-14T03:52:28;7.22;;;3.22;;
24102;SDS011;12278;53.058;9.028;2023-03-14T03:56:28;4.78;;;3.20;;
24102;SDS011;12278;53.058;9.028;2023-03-14T04:00:29;4.88;;;3.80;;
24102;SDS011;12278;53.058;9.028;2023-03-14T04:04:32;4.65;;;3.30;;
24102;SDS011;12278;53.058;9.028;2023-03-14T04:08:33;9.25;;;4.88;;
24102;SDS011;12278;53.058;9.028;2023-03-14T04:12:33;6.10;;;4.47;;
24102;SDS011;12278;53.058;9.028;2023-03-14T04:16:34;7.20;;;4.57;;
24102;SDS011;12278;53.058;9.028;2023-03-14T04:20:35;7.68;;;4.60;;
24102;SDS011;12278;53.058;9.028;2023-03-14T04:24:40;7.28;;;4.85;;
24102;SDS011;12278;53.058;9.028;2023-03-14T04:28:40;8.68;;;4.50;;
24102;SDS011;12278;53.058;9.028;2023-03-14T04:32:41;7.50;;;4.78;;
24102;SDS011;12278;53.058;9.028;2023-03-14T04:36:41;5.35;;;3.83;;
24102;SDS011;12278;53.058;9.028;2023-03-14T04:40:43;5.60;;;4.60;;
24102;SDS011;12278;53.058;9.028;2023-03-14T04:44:44;8.52;;;4.55;;
24102;SDS011;12278;53.058;9.028;2023-03-14T04:48:46;9.02;;;4.15;;
24102;SDS011;12278;53.058;9.028;2023-03-14T04:52:50;9.15;;;4.30;;
24102;SDS011;12278;53.058;9.028;2023-03-14T04:56:50;8.50;;;4.10;;
24102;SDS011;12278;53.058;9.028;2023-03-14T05:00:51;5.00;;;3.35;;
24102;SDS011;12278;53.058;9.028;2023-03-14T05:04:53;7.93;;;4.28;;
24102;SDS011;12278;53.058;9.028;2023-03-14T05:08:56;6.45;;;3.15;;
24102;SDS011;12278;53.058;9.028;2023-03-14T05:12:56;5.78;;;3.47;;
24102;SDS011;12278;53.058;9.028;2023-03-14T05:21:03;5.35;;;3.22;;
24102;SDS011;12278;53.058;9.028;2023-03-14T05:25:04;4.40;;;2.42;;
24102;SDS011;12278;53.058;9.028;2023-03-14T05:29:06;2.78;;;2.47;;
24102;SDS011;12278;53.058;9.028;2023-03-14T05:33:07;3.00;;;2.80;;
24102;SDS011;12278;53.058;9.028;2023-03-14T05:37:08;6.53;;;2.33;;
24102;SDS011;12278;53.058;9.028;2023-03-14T05:41:09;8.00;;;3.15;;
24102;SDS011;12278;53.058;9.028;2023-03-14T05:45:09;3.72;;;2.90;;
24102;SDS011;12278;53.058;9.028;2023-03-14T05:49:10;8.18;;;2.97;;
24102;SDS011;12278;53.058;9.028;2023-03-14T05:53:11;5.05;;;2.83;;
24102;SDS011;12278;53.058;9.028;2023-03-14T05:57:20;4.93;;;2.13;;
24102;SDS011;12278;53.058;9.028;2023-03-14T06:05:49;2.97;;;2.25;;
24102;SDS011;12278;53.058;9.028;2023-03-14T06:09:57;3.10;;;1.77;;
24102;SDS011;12278;53.058;9.028;2023-03-14T06:13:58;1.63;;;1.10;;
24102;SDS011;12278;53.058;9.028;2023-03-14T06:18:00;2.50;;;1.10;;
24102;SDS011;12278;53.058;9.028;2023-03-14T06:22:13;2.75;;;1.25;;
24102;SDS011;12278;53.058;9.028;2023-03-14T06:26:14;4.90;;;0.93;;
24102;SDS011;12278;53.058;9.028;2023-03-14T06:30:15;1.63;;;0.95;;
24102;SDS011;12278;53.058;9.028;2023-03-14T06:34:16;2.38;;;1.02;;
24102;SDS011;12278;53.058;9.028;2023-03-14T06:38:25;2.15;;;1.25;;
24102;SDS011;12278;53.058;9.028;2023-03-14T06:42:25;3.72;;;2.08;;
24102;SDS011;12278;53.058;9.028;2023-03-14T06:46:26;1.83;;;1.50;;
24102;SDS011;12278;53.058;9.028;2023-03-14T06:50:27;5.13;;;1.83;;
24102;SDS011;12278;53.058;9.028;2023-03-14T06:54:27;1.65;;;1.55;;
24102;SDS011;12278;53.058;9.028;2023-03-14T06:58:28;2.28;;;1.73;;
24102;SDS011;12278;53.058;9.028;2023-03-14T07:02:29;4.22;;;2.58;;
24102;SDS011;12278;53.058;9.028;2023-03-14T07:06:29;5.22;;;2.85;;
24102;SDS011;12278;53.058;9.028;2023-03-14T07:10:30;4.28;;;1.92;;
24102;SDS011;12278;53.058;9.028;2023-03-14T07:14:31;6.90;;;2.42;;
24102;SDS011;12278;53.058;9.028;2023-03-14T07:18:31;4.03;;;2.58;;
24102;SDS011;12278;53.058;9.028;2023-03-14T07:22:32;5.25;;;3.58;;
24102;SDS011;12278;53.058;9.028;2023-03-14T07:26:33;6.82;;;2.92;;
24102;SDS011;12278;53.058;9.028;2023-03-14T07:30:34;4.70;;;2.50;;
24102;SDS011;12278;53.058;9.028;2023-03-14T07:34:34;4.05;;;2.70;;
24102;SDS011;12278;53.058;9.028;2023-03-14T07:38:35;7.07;;;3.40;;
24102;SDS011;12278;53.058;9.028;2023-03-14T07:42:36;4.20;;;2.70;;
24102;SDS011;12278;53.058;9.028;2023-03-14T07:46:36;9.38;;;4.03;;
24102;SDS011;12278;53.058;9.028;2023-03-14T07:50:37;7.50;;;3.42;;
24102;SDS011;12278;53.058;9.028;2023-03-14T07:54:39;6.35;;;3.40;;
24102;SDS011;12278;53.058;9.028;2023-03-14T07:58:39;7.18;;;3.40;;
24102;SDS011;12278;53.058;9.028;2023-03-14T08:02:40;7.20;;;3.83;;
24102;SDS011;12278;53.058;9.028;2023-03-14T08:06:41;9.75;;;4.25;;
24102;SDS011;12278;53.058;9.028;2023-03-14T08:10:41;6.00;;;3.45;;
24102;SDS011;12278;53.058;9.028;2023-03-14T08:18:54;4.97;;;3.63;;
24102;SDS011;12278;53.058;9.028;2023-03-14T08:23:06;6.35;;;3.47;;
24102;SDS011;12278;53.058;9.028;2023-03-14T08:27:07;10.07;;;3.47;;
24102;SDS011;12278;53.058;9.028;2023-03-14T08:31:07;5.00;;;4.00;;
24102;SDS011;12278;53.058;9.028;2023-03-14T08:35:08;6.55;;;3.80;;
24102;SDS011;12278;53.058;9.028;2023-03-14T08:39:13;8.00;;;3.40;;
24102;SDS011;12278;53.058;9.028;2023-03-14T08:43:13;5.88;;;3.55;;
24102;SDS011;12278;53.058;9.028;2023-03-14T08:47:14;5.72;;;2.70;;
24102;SDS011;12278;53.058;9.028;2023-03-14T08:51:14;3.58;;;2.53;;
24102;SDS011;12278;53.058;9.028;2023-03-14T08:55:15;5.28;;;3.40;;
24102;SDS011;12278;53.058;9.028;2023-03-14T08:59:16;3.83;;;3.13;;
24102;SDS011;12278;53.058;9.028;2023-03-14T09:03:18;5.97;;;3.05;;
24102;SDS011;12278;53.058;9.028;2023-03-14T09:07:18;5.72;;;2.78;;
24102;SDS011;12278;53.058;9.028;2023-03-14T09:11:19;5.18;;;2.88;;
24102;SDS011;12278;53.058;9.028;2023-03-14T09:15:20;3.67;;;1.90;;
24102;SDS011;12278;53.058;9.028;2023-03-14T09:19:21;2.20;;;1.47;;
24102;SDS011;12278;53.058;9.028;2023-03-14T09:23:21;2.17;;;1.80;;
24102;SDS011;12278;53.058;9.028;2023-03-14T09:27:22;1.98;;;1.55;;
24102;SDS011;12278;53.058;9.028;2023-03-14T09:35:39;1.60;;;0.93;;
24102;SDS011;12278;53.058;9.028;2023-03-14T09:39:39;2.35;;;1.50;;
24102;SDS011;12278;53.058;9.028;2023-03-14T09:43:40;2.27;;;0.80;;
24102;SDS011;12278;53.058;9.028;2023-03-14T09:47:53;2.03;;;0.83;;
24102;SDS011;12278;53.058;9.028;2023-03-14T09:51:56;1.33;;;0.90;;
24102;SDS011;12278;53.058;9.028;2023-03-14T09:55:59;0.77;;;0.77;;
24102;SDS011;12278;53.058;9.028;2023-03-14T10:00:02;1.73;;;1.10;;
24102;SDS011;12278;53.058;9.028;2023-03-14T10:04:15;4.23;;;0.83;;
24102;SDS011;12278;53.058;9.028;2023-03-14T10:08:33;2.00;;;0.73;;
24102;SDS011;12278;53.058;9.028;2023-03-14T10:12:34;2.27;;;0.70;;
24102;SDS011;12278;53.058;9.028;2023-03-14T10:16:37;1.20;;;0.53;;
24102;SDS011;12278;53.058;9.028;2023-03-14T10:20:46;0.97;;;0.17;;
24102;SDS011;12278;53.058;9.028;2023-03-14T10:24:52;0.83;;;0.17;;
24102;SDS011;12278;53.058;9.028;2023-03-14T10:29:03;0.30;;;0.20;;
24102;SDS011;12278;53.058;9.028;2023-03-14T10:37:23;0.80;;;0.20;;
24102;SDS011;12278;53.058;9.028;2023-03-14T10:41:30;0.10;;;0.10;;
24102;SDS011;12278;53.058;9.028;2023-03-14T10:45:36;0.10;;;0.10;;
24102;SDS011;12278;53.058;9.028;2023-03-14T10:49:39;0.13;;;0.13;;
24102;SDS011;12278;53.058;9.028;2023-03-14T10:57:42;0.20;;;0.20;;
24102;SDS011;12278;53.058;9.028;2023-03-14T11:14:24;0.70;;;0.63;;
24102;SDS011;12278;53.058;9.028;2023-03-14T11:18:46;1.63;;;0.37;;
24102;SDS011;12278;53.058;9.028;2023-03-14T11:27:36;1.23;;;0.57;;
24102;SDS011;12278;53.058;9.028;2023-03-14T11:31:44;6.93;;;0.90;;
24102;SDS011;12278;53.058;9.028;2023-03-14T11:44:39;3.47;;;0.60;;
24102;SDS011;12278;53.058;9.028;2023-03-14T11:49:01;2.37;;;0.93;;
24102;SDS011;12278;53.058;9.028;2023-03-14T11:57:30;4.10;;;1.07;;
24102;SDS011;12278;53.058;9.028;2023-03-14T12:01:44;5.17;;;1.07;;
24102;SDS011;12278;53.058;9.028;2023-03-14T12:06:02;3.27;;;2.10;;
24102;SDS011;12278;53.058;9.028;2023-03-14T12:10:19;3.10;;;1.70;;
24102;SDS011;12278;53.058;9.028;2023-03-14T12:14:22;6.67;;;1.43;;
24102;SDS011;12278;53.058;9.028;2023-03-14T12:22:43;9.77;;;1.90;;
24102;SDS011;12278;53.058;9.028;2023-03-14T12:26:54;4.83;;;2.00;;
24102;SDS011;12278;53.058;9.028;2023-03-14T12:30:57;10.30;;;2.47;;
24102;SDS011;12278;53.058;9.028;2023-03-14T12:35:36;13.07;;;2.10;;
24102;SDS011;12278;53.058;9.028;2023-03-14T12:39:47;7.57;;;2.80;;
24102;SDS011;12278;53.058;9.028;2023-03-14T12:49:07;9.83;;;2.43;;
24102;SDS011;12278;53.058;9.028;2023-03-14T13:06:05;7.47;;;2.03;;
24102;SDS011;12278;53.058;9.028;2023-03-14T13:14:09;7.73;;;2.37;;
24102;SDS011;12278;53.058;9.028;2023-03-14T13:22:17;5.23;;;1.70;;
24102;SDS011;12278;53.058;9.028;2023-03-14T13:26:37;6.28;;;1.90;;
24102;SDS011;12278;53.058;9.028;2023-03-14T13:30:50;7.23;;;1.70;;
24102;SDS011;12278;53.058;9.028;2023-03-14T13:34:56;3.27;;;1.70;;
24102;SDS011;12278;53.058;9.028;2023-03-14T13:38:58;7.37;;;2.33;;
24102;SDS011;12278;53.058;9.028;2023-03-14T13:47:18;6.60;;;1.53;;
24102;SDS011;12278;53.058;9.028;2023-03-14T13:55:40;6.60;;;1.50;;
24102;SDS011;12278;53.058;9.028;2023-03-14T13:59:45;6.37;;;1.87;;
24102;SDS011;12278;53.058;9.028;2023-03-14T14:04:14;5.37;;;2.57;;
24102;SDS011;12278;53.058;9.028;2023-03-14T14:08:16;7.27;;;1.40;;
24102;SDS011;12278;53.058;9.028;2023-03-14T14:12:22;5.50;;;1.70;;
24102;SDS011;12278;53.058;9.028;2023-03-14T14:16:32;4.83;;;1.37;;
24102;SDS011;12278;53.058;9.028;2023-03-14T14:20:34;4.93;;;1.33;;
24102;SDS011;12278;53.058;9.028;2023-03-14T14:24:40;4.25;;;1.60;;
24102;SDS011;12278;53.058;9.028;2023-03-14T14:28:41;5.82;;;1.85;;
24102;SDS011;12278;53.058;9.028;2023-03-14T14:32:41;2.65;;;1.35;;
24102;SDS011;12278;53.058;9.028;2023-03-14T14:36:42;5.03;;;1.67;;
24102;SDS011;12278;53.058;9.028;2023-03-14T14:40:51;4.50;;;1.43;;
24102;SDS011;12278;53.058;9.028;2023-03-14T14:45:03;6.00;;;1.97;;
24102;SDS011;12278;53.058;9.028;2023-03-14T14:49:10;4.07;;;1.45;;
24102;SDS011;12278;53.058;9.028;2023-03-14T14:57:24;4.18;;;1.35;;
24102;SDS011;12278;53.058;9.028;2023-03-14T15:01:37;4.13;;;1.58;;
24102;SDS011;12278;53.058;9.028;2023-03-14T15:05:39;3.03;;;1.70;;
24102;SDS011;12278;53.058;9.028;2023-03-14T15:09:41;5.57;;;1.52;;
24102;SDS011;12278;53.058;9.028;2023-03-14T15:13:46;3.07;;;0.93;;
24102;SDS011;12278;53.058;9.028;2023-03-14T15:17:47;2.40;;;1.13;;
24102;SDS011;12278;53.058;9.028;2023-03-14T15:21:48;3.67;;;1.13;;
24102;SDS011;12278;53.058;9.028;2023-03-14T15:25:48;4.37;;;1.63;;
24102;SDS011;12278;53.058;9.028;2023-03-14T15:29:50;5.10;;;1.20;;
24102;SDS011;12278;53.058;9.028;2023-03-14T15:33:51;4.37;;;1.27;;
24102;SDS011;12278;53.058;9.028;2023-03-14T15:37:51;4.47;;;1.80;;
24102;SDS011;12278;53.058;9.028;2023-03-14T15:41:54;3.23;;;1.77;;
24102;SDS011;12278;53.058;9.028;2023-03-14T15:45:55;2.27;;;1.57;;
24102;SDS011;12278;53.058;9.028;2023-03-14T15:49:59;3.93;;;1.37;;
24102;SDS011;12278;53.058;9.028;2023-03-14T15:53:59;2.73;;;1.97;;
24102;SDS011;12278;53.058;9.028;2023-03-14T15:58:00;7.37;;;1.93;;
24102;SDS011;12278;53.058;9.028;2023-03-14T16:02:02;6.60;;;2.23;;
24102;SDS011;12278;53.058;9.028;2023-03-14T16:06:03;6.43;;;1.50;;
24102;SDS011;12278;53.058;9.028;2023-03-14T16:10:05;3.67;;;1.53;;
24102;SDS011;12278;53.058;9.028;2023-03-14T16:14:07;5.13;;;1.37;;
24102;SDS011;12278;53.058;9.028;2023-03-14T16:18:10;5.27;;;1.80;;
24102;SDS011;12278;53.058;9.028;2023-03-14T16:22:13;2.93;;;1.63;;
24102;SDS011;12278;53.058;9.028;2023-03-14T16:26:15;8.80;;;2.00;;
24102;SDS011;12278;53.058;9.028;2023-03-14T16:34:56;5.20;;;1.80;;
24102;SDS011;12278;53.058;9.028;2023-03-14T16:38:57;6.63;;;1.50;;
24102;SDS011;12278;53.058;9.028;2023-03-14T16:51:13;4.23;;;1.63;;
24102;SDS011;12278;53.058;9.028;2023-03-14T16:55:15;5.77;;;1.53;;
24102;SDS011;12278;53.058;9.028;2023-03-14T16:59:24;4.70;;;1.20;;
24102;SDS011;12278;53.058;9.028;2023-03-14T17:03:27;4.40;;;1.43;;
24102;SDS011;12278;53.058;9.028;2023-03-14T17:07:28;2.80;;;1.60;;
24102;SDS011;12278;53.058;9.028;2023-03-14T17:15:51;5.23;;;1.60;;
24102;SDS011;12278;53.058;9.028;2023-03-14T17:19:52;5.27;;;1.53;;
24102;SDS011;12278;53.058;9.028;2023-03-14T17:23:57;4.57;;;1.10;;
24102;SDS011;12278;53.058;9.028;2023-03-14T17:27:59;5.13;;;1.67;;
24102;SDS011;12278;53.058;9.028;2023-03-14T17:32:03;5.53;;;1.30;;
24102;SDS011;12278;53.058;9.028;2023-03-14T17:36:17;6.13;;;1.67;;
24102;SDS011;12278;53.058;9.028;2023-03-14T17:40:21;1.33;;;0.90;;
24102;SDS011;12278;53.058;9.028;2023-03-14T17:44:25;3.20;;;1.33;;
24102;SDS011;12278;53.058;9.028;2023-03-14T17:48:26;3.27;;;1.47;;
24102;SDS011;12278;53.058;9.028;2023-03-14T17:52:27;3.10;;;0.90;;
24102;SDS011;12278;53.058;9.028;2023-03-14T17:56:27;4.17;;;1.30;;
24102;SDS011;12278;53.058;9.028;2023-03-14T18:00:36;2.77;;;1.60;;
24102;SDS011;12278;53.058;9.028;2023-03-14T18:04:37;7.37;;;1.97;;
24102;SDS011;12278;53.058;9.028;2023-03-14T18:08:42;2.10;;;1.30;;
24102;SDS011;12278;53.058;9.028;2023-03-14T18:12:43;5.60;;;2.03;;
24102;SDS011;12278;53.058;9.028;2023-03-14T18:16:44;5.67;;;1.73;;
24102;SDS011;12278;53.058;9.028;2023-03-14T18:20:48;5.77;;;2.03;;
24102;SDS011;12278;53.058;9.028;2023-03-14T18:29:08;7.37;;;3.77;;
24102;SDS011;12278;53.058;9.028;2023-03-14T18:33:22;9.70;;;3.00;;
24102;SDS011;12278;53.058;9.028;2023-03-14T18:37:23;4.70;;;2.77;;
24102;SDS011;12278;53.058;9.028;2023-03-14T18:41:24;7.40;;;3.20;;
24102;SDS011;12278;53.058;9.028;2023-03-14T18:45:25;6.00;;;3.37;;
24102;SDS011;12278;53.058;9.028;2023-03-14T18:49:26;7.40;;;2.60;;
24102;SDS011;12278;53.058;9.028;2023-03-14T18:53:26;6.13;;;1.80;;
24102;SDS011;12278;53.058;9.028;2023-03-14T18:57:31;5.10;;;1.87;;
24102;SDS011;12278;53.058;9.028;2023-03-14T19:01:36;6.77;;;2.00;;
24102;SDS011;12278;53.058;9.028;2023-03-14T19:05:42;4.90;;;1.83;;
24102;SDS011;12278;53.058;9.028;2023-03-14T19:09:43;5.53;;;1.80;;
24102;SDS011;12278;53.058;9.028;2023-03-14T19:17:55;5.47;;;1.40;;
24102;SDS011;12278;53.058;9.028;2023-03-14T19:21:56;3.50;;;1.23;;
24102;SDS011;12278;53.058;9.028;2023-03-14T19:25:56;9.87;;;4.20;;
24102;SDS011;12278;53.058;9.028;2023-03-14T19:29:57;14.80;;;6.00;;
24102;SDS011;12278;53.058;9.028;2023-03-14T19:33:58;7.37;;;3.00;;
24102;SDS011;12278;53.058;9.028;2023-03-14T19:38:06;8.37;;;1.77;;
24102;SDS011;12278;53.058;9.028;2023-03-14T19:42:07;7.47;;;2.53;;
24102;SDS011;12278;53.058;9.028;2023-03-14T19:46:08;7.60;;;2.43;;
24102;SDS011;12278;53.058;9.028;2023-03-14T19:50:08;3.93;;;2.07;;
24102;SDS011;12278;53.058;9.028;2023-03-14T19:54:10;4.17;;;2.43;;
24102;SDS011;12278;53.058;9.028;2023-03-14T19:58:12;7.13;;;2.90;;
24102;SDS011;12278;53.058;9.028;2023-03-14T20:02:13;7.07;;;2.60;;
24102;SDS011;12278;53.058;9.028;2023-03-14T20:06:14;6.20;;;2.13;;
24102;SDS011;12278;53.058;9.028;2023-03-14T20:10:16;5.17;;;1.77;;
24102;SDS011;12278;53.058;9.028;2023-03-14T20:14:18;3.83;;;1.90;;
24102;SDS011;12278;53.058;9.028;2023-03-14T20:18:19;6.47;;;2.80;;
24102;SDS011;12278;53.058;9.028;2023-03-14T20:22:22;7.17;;;2.07;;
24102;SDS011;12278;53.058;9.028;2023-03-14T20:26:29;5.97;;;1.43;;
24102;SDS011;12278;53.058;9.028;2023-03-14T20:30:31;4.47;;;1.50;;
24102;SDS011;12278;53.058;9.028;2023-03-14T20:38:39;4.93;;;1.77;;
24102;SDS011;12278;53.058;9.028;2023-03-14T20:47:11;1.43;;;1.30;;
24102;SDS011;12278;53.058;9.028;2023-03-14T20:55:43;4.70;;;2.23;;
24102;SDS011;12278;53.058;9.028;2023-03-14T20:59:45;5.63;;;1.37;;
24102;SDS011;12278;53.058;9.028;2023-03-14T21:03:46;4.35;;;1.85;;
24102;SDS011;12278;53.058;9.028;2023-03-14T21:07:46;6.60;;;2.10;;
24102;SDS011;12278;53.058;9.028;2023-03-14T21:11:56;6.07;;;2.40;;
24102;SDS011;12278;53.058;9.028;2023-03-14T21:16:00;6.60;;;1.97;;
24102;SDS011;12278;53.058;9.028;2023-03-14T21:20:02;5.57;;;2.10;;
24102;SDS011;12278;53.058;9.028;2023-03-14T21:24:05;5.33;;;2.03;;
24102;SDS011;12278;53.058;9.028;2023-03-14T21:28:06;7.23;;;3.50;;
24102;SDS011;12278;53.058;9.028;2023-03-14T21:32:07;5.53;;;1.83;;
24102;SDS011;12278;53.058;9.028;2023-03-14T21:36:15;6.20;;;2.33;;
24102;SDS011;12278;53.058;9.028;2023-03-14T21:44:25;6.10;;;2.70;;
24102;SDS011;12278;53.058;9.028;2023-03-14T21:48:25;5.80;;;2.00;;
24102;SDS011;12278;53.058;9.028;2023-03-14T21:52:26;4.30;;;2.37;;
24102;SDS011;12278;53.058;9.028;2023-03-14T21:56:29;4.93;;;2.00;;
24102;SDS011;12278;53.058;9.028;2023-03-14T22:04:34;6.77;;;2.23;;
24102;SDS011;12278;53.058;9.028;2023-03-14T22:08:42;5.60;;;1.97;;
24102;SDS011;12278;53.058;9.028;2023-03-14T22:12:43;8.60;;;1.77;;
24102;SDS011;12278;53.058;9.028;2023-03-14T22:16:43;5.43;;;1.70;;
24102;SDS011;12278;53.058;9.028;2023-03-14T22:20:58;5.73;;;2.33;;
24102;SDS011;12278;53.058;9.028;2023-03-14T22:24:59;4.60;;;2.00;;
24102;SDS011;12278;53.058;9.028;2023-03-14T22:28:59;4.60;;;1.80;;
24102;SDS011;12278;53.058;9.028;2023-03-14T22:33:00;5.43;;;1.90;;
24102;SDS011;12278;53.058;9.028;2023-03-14T22:37:01;11.00;;;2.00;;
24102;SDS011;12278;53.058;9.028;2023-03-14T22:41:19;5.47;;;2.67;;
24102;SDS011;12278;53.058;9.028;2023-03-14T22:45:19;3.30;;;1.73;;
24102;SDS011;12278;53.058;9.028;2023-03-14T22:49:20;4.37;;;2.53;;
24102;SDS011;12278;53.058;9.028;2023-03-14T22:53:20;4.77;;;2.10;;
24102;SDS011;12278;53.058;9.028;2023-03-14T22:57:21;5.53;;;2.03;;
24102;SDS011;12278;53.058;9.028;2023-03-14T23:01:22;5.57;;;2.20;;
24102;SDS011;12278;53.058;9.028;2023-03-14T23:05:24;3.20;;;2.10;;
24102;SDS011;12278;53.058;9.028;2023-03-14T23:09:28;6.17;;;2.23;;
24102;SDS011;12278;53.058;9.028;2023-03-14T23:13:30;8.57;;;1.97;;
24102;SDS011;12278;53.058;9.028;2023-03-14T23:17:31;3.17;;;1.53;;
24102;SDS011;12278;53.058;9.028;2023-03-14T23:21:33;7.00;;;1.80;;
24102;SDS011;12278;53.058;9.028;2023-03-14T23:25:34;6.47;;;2.37;;
24102;SDS011;12278;53.058;9.028;2023-03-14T23:29:35;4.97;;;1.80;;
24102;SDS011;12278;53.058;9.028;2023-03-14T23:33:36;5.20;;;2.17;;
24102;SDS011;12278;53.058;9.028;2023-03-14T23:37:36;6.17;;;2.40;;
24102;SDS011;12278;53.058;9.028;2023-03-14T23:41:38;6.27;;;2.43;;
24102;SDS011;12278;53.058;9.028;2023-03-14T23:45:38;7.80;;;1.97;;
24102;SDS011;12278;53.058;9.028;2023-03-14T23:49:39;8.23;;;2.47;;
24102;SDS011;12278;53.058;9.028;2023-03-14T23:53:40;10.90;;;3.00;;
24102;SDS011;12278;53.058;9.028;2023-03-14T23:57:42;4.07;;;2.30;;
